createdAt,value
2018-12-26T00:02:50.633Z,81.84
2018-12-26T00:07:54.795Z,82.46
2018-12-26T00:18:47.032Z,81.06
2018-12-26T00:23:52.837Z,81.35
2018-12-26T00:29:04.736Z,80.85
2018-12-26T00:34:10.491Z,81.02
2018-12-26T00:39:16.276Z,81.40
2018-12-26T00:44:22.058Z,81.85
2018-12-26T00:49:27.861Z,81.31
2018-12-26T00:54:52.596Z,80.54
2018-12-26T00:59:58.364Z,80.55
2018-12-26T01:10:19.659Z,80.92
2018-12-26T01:20:39.843Z,80.77
2018-12-26T01:26:04.651Z,80.94
2018-12-26T01:31:10.489Z,81.49
2018-12-26T01:41:32.322Z,82.14
2018-12-26T01:46:38.095Z,81.94
2018-12-26T01:51:43.859Z,82.29
2018-12-26T01:57:07.342Z,81.72
2018-12-26T02:02:11.791Z,81.76
2018-12-26T02:07:17.528Z,81.83
2018-12-26T02:12:23.281Z,82.11
2018-12-26T02:17:47.992Z,82.17
2018-12-26T02:22:54.070Z,82.93
2018-12-26T02:27:59.891Z,82.49
2018-12-26T02:33:09.495Z,82.49
2018-12-26T02:48:43.513Z,82.54
2018-12-26T02:53:49.607Z,82.44
2018-12-26T02:58:55.374Z,82.49
2018-12-26T03:04:01.101Z,81.38
2018-12-26T03:15:02.269Z,82.12
2018-12-26T03:20:08.077Z,81.68
2018-12-26T03:25:14.204Z,81.69
2018-12-26T03:30:20.294Z,81.11
2018-12-26T03:35:45.015Z,81.25
2018-12-26T03:51:42.453Z,82.51
2018-12-26T03:56:46.568Z,82.32
2018-12-26T04:01:52.273Z,82.33
2018-12-26T04:12:34.154Z,82.81
2018-12-26T04:17:40.254Z,83.10
2018-12-26T04:23:05.001Z,85.65
2018-12-26T04:28:10.734Z,86.40
2018-12-26T04:33:16.938Z,87.67
2018-12-26T04:38:41.620Z,88.80
2018-12-26T04:43:45.773Z,88.91
2018-12-26T04:48:53.374Z,89.26
2018-12-26T04:53:59.301Z,88.27
2018-12-26T04:59:05.431Z,88.03
2018-12-26T05:04:11.532Z,88.69
2018-12-26T05:09:17.331Z,89.13
2018-12-26T05:14:21.373Z,89.67
2018-12-26T05:19:25.373Z,89.90
2018-12-26T05:35:02.310Z,89.40
2018-12-26T05:46:01.687Z,89.59
2018-12-26T05:51:07.480Z,89.51
2018-12-26T05:56:11.493Z,89.13
2018-12-26T06:06:33.206Z,89.97
2018-12-26T06:11:57.896Z,90.28
2018-12-26T06:17:03.691Z,90.97
2018-12-26T06:22:08.051Z,91.74
2018-12-26T06:27:32.777Z,91.92
2018-12-26T06:32:55.867Z,92.47
2018-12-26T06:38:01.485Z,93.02
2018-12-26T06:43:15.138Z,93.18
2018-12-26T06:48:19.274Z,93.93
2018-12-26T06:53:25.004Z,93.18
2018-12-26T06:58:29.202Z,93.43
2018-12-26T07:03:53.226Z,93.31
2018-12-26T07:09:16.493Z,93.54
2018-12-26T07:14:41.210Z,94.80
2018-12-26T07:20:05.935Z,96.22
2018-12-26T07:25:31.035Z,97.79
2018-12-26T07:30:55.876Z,99.25
2018-12-26T07:46:53.871Z,100.00
2018-12-26T07:51:59.889Z,100.00
2018-12-26T07:57:26.596Z,100.00
2018-12-26T08:02:32.416Z,100.00
2018-12-26T08:07:38.212Z,100.00
2018-12-26T08:13:03.294Z,100.00
2018-12-26T08:18:09.063Z,100.00
2018-12-26T08:28:27.751Z,100.00
2018-12-26T08:33:33.530Z,100.00
2018-12-26T08:49:30.241Z,100.00
2018-12-26T08:54:55.047Z,100.00
2018-12-26T09:00:00.915Z,100.00
2018-12-26T09:10:41.494Z,100.00
2018-12-26T09:21:22.518Z,100.00
2018-12-26T09:32:04.355Z,100.00
2018-12-26T09:37:29.212Z,100.00
2018-12-26T09:43:09.923Z,100.00
2018-12-26T09:48:16.533Z,100.00
2018-12-26T09:53:41.270Z,100.00
2018-12-26T09:58:52.431Z,100.00
2018-12-26T10:04:20.718Z,100.00
2018-12-26T10:09:26.778Z,100.00
2018-12-26T10:20:06.855Z,100.00
2018-12-26T10:25:31.584Z,100.00
2018-12-26T10:30:37.384Z,100.00
2018-12-26T10:36:00.482Z,100.00
2018-12-26T10:41:06.620Z,100.00
2018-12-26T10:46:12.787Z,100.00
2018-12-26T10:51:18.581Z,100.00
2018-12-26T10:56:24.364Z,100.00
2018-12-26T11:01:30.177Z,100.00
2018-12-26T11:06:35.947Z,100.00
2018-12-26T11:11:41.774Z,100.00
2018-12-26T11:28:00.568Z,100.00
2018-12-26T11:33:05.051Z,100.00
2018-12-26T11:38:09.108Z,100.00
2018-12-26T11:43:13.166Z,100.00
2018-12-26T11:48:46.787Z,100.00
2018-12-26T11:53:52.563Z,100.00
2018-12-26T11:58:58.733Z,100.00
2018-12-26T12:04:03.144Z,100.00
2018-12-26T12:09:07.663Z,100.00
2018-12-26T12:14:11.826Z,100.00
2018-12-26T12:19:16.218Z,100.00
2018-12-26T12:24:21.327Z,100.00
2018-12-26T12:29:25.754Z,100.00
2018-12-26T12:34:29.849Z,100.00
2018-12-26T12:39:34.409Z,100.00
2018-12-26T12:44:38.506Z,100.00
2018-12-26T12:49:42.556Z,100.00
2018-12-26T12:54:46.779Z,100.00
2018-12-26T12:59:50.866Z,100.00
2018-12-26T13:04:54.883Z,100.00
2018-12-26T13:09:58.929Z,100.00
2018-12-26T13:15:02.947Z,100.00
2018-12-26T13:20:08.180Z,100.00
2018-12-26T13:25:12.233Z,100.00
2018-12-26T13:30:16.269Z,100.00
2018-12-26T13:35:20.316Z,100.00
2018-12-26T13:40:24.444Z,100.00
2018-12-26T13:45:28.456Z,100.00
2018-12-26T13:50:32.610Z,100.00
2018-12-26T13:55:37.046Z,100.00
2018-12-26T14:00:41.156Z,100.00
2018-12-26T14:05:45.619Z,100.00
2018-12-26T14:10:49.713Z,100.00
2018-12-26T14:15:54.128Z,100.00
2018-12-26T14:20:58.216Z,100.00
2018-12-26T14:26:02.447Z,100.00
2018-12-26T14:31:06.626Z,100.00
2018-12-26T14:36:10.819Z,100.00
2018-12-26T14:41:22.812Z,100.00
2018-12-26T14:46:27.262Z,100.00
2018-12-26T14:51:31.413Z,100.00
2018-12-26T14:56:36.888Z,100.00
2018-12-26T15:01:41.321Z,100.00
2018-12-26T15:06:45.554Z,100.00
2018-12-26T15:11:49.587Z,100.00
2018-12-26T15:16:53.630Z,100.00
2018-12-26T15:21:57.743Z,100.00
2018-12-26T15:27:01.893Z,100.00
2018-12-26T15:32:06.017Z,100.00
2018-12-26T15:37:10.233Z,100.00
2018-12-26T15:42:15.435Z,100.00
2018-12-26T15:47:19.485Z,100.00
2018-12-26T15:52:23.519Z,100.00
2018-12-26T15:57:27.905Z,100.00
2018-12-26T16:02:32.039Z,100.00
2018-12-26T16:07:36.265Z,100.00
2018-12-26T16:12:40.389Z,100.00
2018-12-26T16:17:44.476Z,100.00
2018-12-26T16:22:48.573Z,100.00
2018-12-26T16:27:52.723Z,100.00
2018-12-26T16:32:56.819Z,100.00
2018-12-26T16:38:01.726Z,100.00
2018-12-26T16:43:06.222Z,100.00
2018-12-26T16:48:10.554Z,100.00
2018-12-26T16:53:14.593Z,100.00
2018-12-26T16:58:18.818Z,100.00
2018-12-26T17:03:22.847Z,100.00
2018-12-26T17:08:26.889Z,100.00
2018-12-26T17:13:30.950Z,100.00
2018-12-26T17:18:35.044Z,100.00
2018-12-26T17:23:39.590Z,100.00
2018-12-26T17:28:44.042Z,100.00
2018-12-26T17:33:48.492Z,100.00
2018-12-26T17:38:52.666Z,100.00
2018-12-26T17:43:56.945Z,100.00
2018-12-26T17:49:00.995Z,100.00
2018-12-26T17:54:32.716Z,100.00
2018-12-26T17:59:59.180Z,100.00
2018-12-26T18:05:03.238Z,100.00
2018-12-26T18:10:08.699Z,100.00
2018-12-26T18:15:12.759Z,100.00
2018-12-26T18:20:16.905Z,100.00
2018-12-26T18:25:20.933Z,100.00
2018-12-26T18:30:25.195Z,100.00
2018-12-26T18:35:29.532Z,100.00
2018-12-26T18:40:35.719Z,100.00
2018-12-26T18:45:39.809Z,100.00
2018-12-26T18:51:02.881Z,100.00
2018-12-26T18:56:07.470Z,100.00
2018-12-26T19:01:11.660Z,100.00
2018-12-26T19:06:15.974Z,100.00
2018-12-26T19:11:39.092Z,100.00
2018-12-26T19:16:43.221Z,100.00
2018-12-26T19:21:52.826Z,100.00
2018-12-26T19:32:18.698Z,100.00
2018-12-26T19:37:23.631Z,100.00
2018-12-26T19:48:10.342Z,100.00
2018-12-26T19:53:15.065Z,100.00
2018-12-26T19:58:29.829Z,100.00
2018-12-26T20:03:34.004Z,100.00
2018-12-26T20:20:13.267Z,100.00
2018-12-26T20:30:52.566Z,100.00
2018-12-26T20:36:24.322Z,100.00
2018-12-26T20:41:30.425Z,100.00
2018-12-26T20:46:39.793Z,100.00
2018-12-26T20:52:02.877Z,100.00
2018-12-26T20:57:23.740Z,100.00
2018-12-26T21:02:29.089Z,100.00
2018-12-26T21:07:33.531Z,100.00
2018-12-26T21:12:56.647Z,100.00
2018-12-26T21:18:00.655Z,100.00
2018-12-26T21:28:41.586Z,100.00
2018-12-26T21:33:45.850Z,100.00
2018-12-26T21:44:26.090Z,100.00
2018-12-26T22:28:07.014Z,100.00
2018-12-26T22:33:11.110Z,100.00
2018-12-26T22:38:16.912Z,100.00
2018-12-26T22:43:21.005Z,100.00
2018-12-26T22:48:44.053Z,100.00
2018-12-26T22:53:48.439Z,100.00
2018-12-26T22:58:52.529Z,100.00
2018-12-26T23:04:15.729Z,100.00
2018-12-26T23:09:21.508Z,100.00
2018-12-26T23:14:25.551Z,100.00
2018-12-26T23:19:29.898Z,100.00
2018-12-26T23:24:34.003Z,100.00
2018-12-26T23:29:38.161Z,100.00
2018-12-26T23:34:42.180Z,100.00
2018-12-26T23:39:46.658Z,100.00
2018-12-26T23:44:50.744Z,100.00
2018-12-26T23:49:55.086Z,100.00
2018-12-26T23:54:59.180Z,100.00
